KLEX/LEX METAR and TAF weather

Enter ICAO airport designator
Station Type Date Time Source
KLEX METAR 2020/11/25 22:01 UTC NOAA

KLEX 252201Z AUTO 18013G22KT 10SM SCT024 OVC034 15/12 A2983 RMK AO2 T01500117


Station Type Date Time Source
KLEX Decoded METAR 2020/11/25 22:01 UTC NOAA

LEXINGTON BLUE GRASS AIRPORT, KY, United States (KLEX) 38-02N 084-36W 300M
Nov 25, 2020 - 05:01 PM EST / 2020.11.25 2201 UTC
Wind: from the S (180 degrees) at 15 MPH (13 KT) gusting to 25 MPH (22 KT):0
Visibility: 10 mile(s):0
Sky conditions: overcast
Temperature: 59.0 F (15.0 C)
Dew Point: 53.1 F (11.7 C)
Relative Humidity: 80%
Pressure (altimeter): 29.83 in. Hg (1010 hPa)
ob: KLEX 252201Z AUTO 18013G22KT 10SM SCT024 OVC034 15/12 A2983 RMK AO2 T01500117
cycle: 22

Station Type Date Time Source
KLEX TAF 2020/11/25 18:22 UTC NOAA

TAF KLEX 251720Z 2518/2618 18017G26KT P6SM VCSH FEW025 OVC040
TEMPO 2518/2521 5SM -SHRA BKN025
FM252100 18017G26KT P6SM VCSH SCT025 OVC035
TEMPO 2522/2602 VRB20G30KT 2SM -TSRA SCT015CB BKN025
FM260200 22014G22KT P6SM SCT022 BKN040
FM260500 23012KT P6SM BKN022
FM260700 22010KT P6SM SCT010 BKN015
FM261200 22007KT P6SM BKN009

Example: see airport list